sensor_id;sensor_type;location;lat;lon;timestamp;temperature;humidity
46590;DHT22;32313;48.722;9.362;2023-04-21T00:00:19;3.70;99.90
46590;DHT22;32313;48.722;9.362;2023-04-21T00:02:45;3.70;99.90
46590;DHT22;32313;48.722;9.362;2023-04-21T00:05:11;3.70;99.90
46590;DHT22;32313;48.722;9.362;2023-04-21T00:07:39;3.70;99.90
46590;DHT22;32313;48.722;9.362;2023-04-21T00:10:09;3.70;99.90
46590;DHT22;32313;48.722;9.362;2023-04-21T00:12:35;3.60;99.90
46590;DHT22;32313;48.722;9.362;2023-04-21T00:15:02;3.60;99.90
46590;DHT22;32313;48.722;9.362;2023-04-21T00:17:28;3.60;99.90
46590;DHT22;32313;48.722;9.362;2023-04-21T00:19:54;3.50;99.90
46590;DHT22;32313;48.722;9.362;2023-04-21T00:22:19;3.50;99.90
46590;DHT22;32313;48.722;9.362;2023-04-21T00:24:46;3.50;99.90
46590;DHT22;32313;48.722;9.362;2023-04-21T00:27:11;3.50;99.90
46590;DHT22;32313;48.722;9.362;2023-04-21T00:29:38;3.40;99.90
46590;DHT22;32313;48.722;9.362;2023-04-21T00:32:05;3.40;99.90
46590;DHT22;32313;48.722;9.362;2023-04-21T00:34:34;3.40;99.90
46590;DHT22;32313;48.722;9.362;2023-04-21T00:37:00;3.30;99.90
46590;DHT22;32313;48.722;9.362;2023-04-21T00:39:25;3.30;99.90
46590;DHT22;32313;48.722;9.362;2023-04-21T00:41:51;3.30;99.90
46590;DHT22;32313;48.722;9.362;2023-04-21T00:44:17;3.30;99.90
46590;DHT22;32313;48.722;9.362;2023-04-21T00:46:42;3.20;99.90
46590;DHT22;32313;48.722;9.362;2023-04-21T00:49:08;3.30;99.90
46590;DHT22;32313;48.722;9.362;2023-04-21T00:51:35;3.30;99.90
46590;DHT22;32313;48.722;9.362;2023-04-21T00:54:04;3.30;99.90
46590;DHT22;32313;48.722;9.362;2023-04-21T00:56:32;3.40;99.90
46590;DHT22;32313;48.722;9.362;2023-04-21T00:59:00;3.40;99.90
46590;DHT22;32313;48.722;9.362;2023-04-21T01:01:32;3.30;99.90
46590;DHT22;32313;48.722;9.362;2023-04-21T01:04:02;3.30;99.90
46590;DHT22;32313;48.722;9.362;2023-04-21T01:06:30;3.20;99.90
46590;DHT22;32313;48.722;9.362;2023-04-21T01:08:59;3.20;99.90
46590;DHT22;32313;48.722;9.362;2023-04-21T01:11:25;3.10;99.90
46590;DHT22;32313;48.722;9.362;2023-04-21T01:13:52;3.10;99.90
46590;DHT22;32313;48.722;9.362;2023-04-21T01:16:22;3.10;99.90
46590;DHT22;32313;48.722;9.362;2023-04-21T01:18:49;3.00;99.90
46590;DHT22;32313;48.722;9.362;2023-04-21T01:21:15;2.90;99.90
46590;DHT22;32313;48.722;9.362;2023-04-21T01:23:42;2.80;99.90
46590;DHT22;32313;48.722;9.362;2023-04-21T01:26:10;2.80;99.90
46590;DHT22;32313;48.722;9.362;2023-04-21T01:28:37;2.80;99.90
46590;DHT22;32313;48.722;9.362;2023-04-21T01:31:03;2.80;99.90
46590;DHT22;32313;48.722;9.362;2023-04-21T01:33:29;2.70;99.90
46590;DHT22;32313;48.722;9.362;2023-04-21T01:35:57;2.60;99.90
46590;DHT22;32313;48.722;9.362;2023-04-21T01:38:22;2.50;99.90
46590;DHT22;32313;48.722;9.362;2023-04-21T01:40:51;2.40;99.90
46590;DHT22;32313;48.722;9.362;2023-04-21T01:43:20;2.30;99.90
46590;DHT22;32313;48.722;9.362;2023-04-21T01:45:47;2.30;99.90
46590;DHT22;32313;48.722;9.362;2023-04-21T01:48:13;2.20;99.90
46590;DHT22;32313;48.722;9.362;2023-04-21T01:50:38;2.20;99.90
46590;DHT22;32313;48.722;9.362;2023-04-21T01:53:04;2.20;99.90
46590;DHT22;32313;48.722;9.362;2023-04-21T01:55:31;2.10;99.90
46590;DHT22;32313;48.722;9.362;2023-04-21T01:57:57;2.20;99.90
46590;DHT22;32313;48.722;9.362;2023-04-21T02:00:24;2.10;99.90
46590;DHT22;32313;48.722;9.362;2023-04-21T02:02:50;2.10;99.90
46590;DHT22;32313;48.722;9.362;2023-04-21T02:05:16;2.10;99.90
46590;DHT22;32313;48.722;9.362;2023-04-21T02:07:41;2.00;99.90
46590;DHT22;32313;48.722;9.362;2023-04-21T02:10:07;2.00;99.90
46590;DHT22;32313;48.722;9.362;2023-04-21T02:12:33;2.00;99.90
46590;DHT22;32313;48.722;9.362;2023-04-21T02:15:00;2.00;99.90
46590;DHT22;32313;48.722;9.362;2023-04-21T02:17:25;2.00;99.90
46590;DHT22;32313;48.722;9.362;2023-04-21T02:20:01;1.90;99.90
46590;DHT22;32313;48.722;9.362;2023-04-21T02:22:26;1.80;99.90
46590;DHT22;32313;48.722;9.362;2023-04-21T02:24:56;1.80;99.90
46590;DHT22;32313;48.722;9.362;2023-04-21T02:27:22;1.70;99.90
46590;DHT22;32313;48.722;9.362;2023-04-21T02:29:47;1.70;99.90
46590;DHT22;32313;48.722;9.362;2023-04-21T02:32:13;1.90;99.90
46590;DHT22;32313;48.722;9.362;2023-04-21T02:34:39;2.00;99.90
46590;DHT22;32313;48.722;9.362;2023-04-21T02:37:06;1.90;99.90
46590;DHT22;32313;48.722;9.362;2023-04-21T02:39:32;1.80;99.90
46590;DHT22;32313;48.722;9.362;2023-04-21T02:41:57;1.80;99.90
46590;DHT22;32313;48.722;9.362;2023-04-21T02:44:23;1.70;99.90
46590;DHT22;32313;48.722;9.362;2023-04-21T02:46:49;1.60;99.90
46590;DHT22;32313;48.722;9.362;2023-04-21T02:49:14;1.60;99.90
46590;DHT22;32313;48.722;9.362;2023-04-21T02:51:40;1.50;99.90
46590;DHT22;32313;48.722;9.362;2023-04-21T02:54:06;1.40;99.90
46590;DHT22;32313;48.722;9.362;2023-04-21T02:56:31;1.40;99.90
46590;DHT22;32313;48.722;9.362;2023-04-21T02:58:59;1.40;99.90
46590;DHT22;32313;48.722;9.362;2023-04-21T03:01:24;1.40;99.90
46590;DHT22;32313;48.722;9.362;2023-04-21T03:03:50;1.30;99.90
46590;DHT22;32313;48.722;9.362;2023-04-21T03:06:16;1.30;99.90
46590;DHT22;32313;48.722;9.362;2023-04-21T03:08:47;1.20;99.90
46590;DHT22;32313;48.722;9.362;2023-04-21T03:11:12;1.20;99.90
46590;DHT22;32313;48.722;9.362;2023-04-21T03:13:38;1.10;99.90
46590;DHT22;32313;48.722;9.362;2023-04-21T03:16:04;1.10;99.90
46590;DHT22;32313;48.722;9.362;2023-04-21T03:18:33;1.10;99.90
46590;DHT22;32313;48.722;9.362;2023-04-21T03:20:59;1.20;99.90
46590;DHT22;32313;48.722;9.362;2023-04-21T03:23:26;1.20;99.90
46590;DHT22;32313;48.722;9.362;2023-04-21T03:25:51;1.20;99.90
46590;DHT22;32313;48.722;9.362;2023-04-21T03:28:17;1.30;99.90
46590;DHT22;32313;48.722;9.362;2023-04-21T03:30:42;1.40;99.90
46590;DHT22;32313;48.722;9.362;2023-04-21T03:33:08;1.40;99.90
46590;DHT22;32313;48.722;9.362;2023-04-21T03:35:34;1.50;99.90
46590;DHT22;32313;48.722;9.362;2023-04-21T03:37:59;1.60;99.90
46590;DHT22;32313;48.722;9.362;2023-04-21T03:40:25;1.70;99.90
46590;DHT22;32313;48.722;9.362;2023-04-21T03:42:51;1.80;99.90
46590;DHT22;32313;48.722;9.362;2023-04-21T03:45:17;2.00;99.90
46590;DHT22;32313;48.722;9.362;2023-04-21T03:47:47;2.00;99.90
46590;DHT22;32313;48.722;9.362;2023-04-21T03:50:13;2.10;99.90
46590;DHT22;32313;48.722;9.362;2023-04-21T03:52:39;2.10;99.90
46590;DHT22;32313;48.722;9.362;2023-04-21T03:55:05;2.20;99.90
46590;DHT22;32313;48.722;9.362;2023-04-21T03:57:41;2.20;99.90
46590;DHT22;32313;48.722;9.362;2023-04-21T04:00:08;2.30;99.90
46590;DHT22;32313;48.722;9.362;2023-04-21T04:02:40;2.30;99.90
46590;DHT22;32313;48.722;9.362;2023-04-21T04:05:06;2.30;99.90
46590;DHT22;32313;48.722;9.362;2023-04-21T04:07:32;2.30;99.90
46590;DHT22;32313;48.722;9.362;2023-04-21T04:09:58;2.40;99.90
46590;DHT22;32313;48.722;9.362;2023-04-21T04:12:24;2.40;99.90
46590;DHT22;32313;48.722;9.362;2023-04-21T04:14:50;2.40;99.90
46590;DHT22;32313;48.722;9.362;2023-04-21T04:17:16;2.50;99.90
46590;DHT22;32313;48.722;9.362;2023-04-21T04:19:41;2.50;99.90
46590;DHT22;32313;48.722;9.362;2023-04-21T04:22:07;2.60;99.90
46590;DHT22;32313;48.722;9.362;2023-04-21T04:24:33;2.60;99.90
46590;DHT22;32313;48.722;9.362;2023-04-21T04:27:00;2.70;99.90
46590;DHT22;32313;48.722;9.362;2023-04-21T04:29:27;2.70;99.90
46590;DHT22;32313;48.722;9.362;2023-04-21T04:31:53;2.70;99.90
46590;DHT22;32313;48.722;9.362;2023-04-21T04:34:19;2.80;99.90
46590;DHT22;32313;48.722;9.362;2023-04-21T04:36:45;2.80;99.90
46590;DHT22;32313;48.722;9.362;2023-04-21T04:39:12;2.80;99.90
46590;DHT22;32313;48.722;9.362;2023-04-21T04:41:38;2.80;99.90
46590;DHT22;32313;48.722;9.362;2023-04-21T04:44:04;2.80;99.90
46590;DHT22;32313;48.722;9.362;2023-04-21T04:46:31;2.80;99.90
46590;DHT22;32313;48.722;9.362;2023-04-21T04:48:56;2.80;99.90
46590;DHT22;32313;48.722;9.362;2023-04-21T04:51:22;2.80;99.90
46590;DHT22;32313;48.722;9.362;2023-04-21T04:53:48;2.80;99.90
46590;DHT22;32313;48.722;9.362;2023-04-21T04:56:14;2.90;99.90
46590;DHT22;32313;48.722;9.362;2023-04-21T04:58:40;2.90;99.90
46590;DHT22;32313;48.722;9.362;2023-04-21T05:01:15;3.00;99.90
46590;DHT22;32313;48.722;9.362;2023-04-21T05:03:42;3.00;99.90
46590;DHT22;32313;48.722;9.362;2023-04-21T05:06:08;3.00;99.90
46590;DHT22;32313;48.722;9.362;2023-04-21T05:08:34;3.10;99.90
46590;DHT22;32313;48.722;9.362;2023-04-21T05:11:00;3.10;99.90
46590;DHT22;32313;48.722;9.362;2023-04-21T05:13:26;3.10;99.90
46590;DHT22;32313;48.722;9.362;2023-04-21T05:15:58;3.10;99.90
46590;DHT22;32313;48.722;9.362;2023-04-21T05:18:26;3.10;99.90
46590;DHT22;32313;48.722;9.362;2023-04-21T05:20:52;3.10;99.90
46590;DHT22;32313;48.722;9.362;2023-04-21T05:23:18;3.10;99.90
46590;DHT22;32313;48.722;9.362;2023-04-21T05:25:43;3.10;99.90
46590;DHT22;32313;48.722;9.362;2023-04-21T05:28:09;3.10;99.90
46590;DHT22;32313;48.722;9.362;2023-04-21T05:30:36;3.20;99.90
46590;DHT22;32313;48.722;9.362;2023-04-21T05:33:02;3.20;99.90
46590;DHT22;32313;48.722;9.362;2023-04-21T05:35:30;3.10;99.90
46590;DHT22;32313;48.722;9.362;2023-04-21T05:37:56;3.10;99.90
46590;DHT22;32313;48.722;9.362;2023-04-21T05:40:22;3.10;99.90
46590;DHT22;32313;48.722;9.362;2023-04-21T05:42:47;3.10;99.90
46590;DHT22;32313;48.722;9.362;2023-04-21T05:45:13;3.20;99.90
46590;DHT22;32313;48.722;9.362;2023-04-21T05:47:39;3.20;99.90
46590;DHT22;32313;48.722;9.362;2023-04-21T05:50:05;3.30;99.90
46590;DHT22;32313;48.722;9.362;2023-04-21T05:52:31;3.30;99.90
46590;DHT22;32313;48.722;9.362;2023-04-21T05:54:57;3.40;99.90
46590;DHT22;32313;48.722;9.362;2023-04-21T05:57:26;3.60;99.90
46590;DHT22;32313;48.722;9.362;2023-04-21T05:59:51;3.60;99.90
46590;DHT22;32313;48.722;9.362;2023-04-21T06:02:17;3.70;99.90
46590;DHT22;32313;48.722;9.362;2023-04-21T06:04:43;3.80;99.90
46590;DHT22;32313;48.722;9.362;2023-04-21T06:07:09;3.80;99.90
46590;DHT22;32313;48.722;9.362;2023-04-21T06:09:38;3.80;99.90
46590;DHT22;32313;48.722;9.362;2023-04-21T06:12:04;3.80;99.90
46590;DHT22;32313;48.722;9.362;2023-04-21T06:14:30;3.80;99.90
46590;DHT22;32313;48.722;9.362;2023-04-21T06:16:56;3.70;99.90
46590;DHT22;32313;48.722;9.362;2023-04-21T06:19:22;3.80;99.90
46590;DHT22;32313;48.722;9.362;2023-04-21T06:21:48;3.80;99.90
46590;DHT22;32313;48.722;9.362;2023-04-21T06:24:14;3.80;99.90
46590;DHT22;32313;48.722;9.362;2023-04-21T06:26:40;4.00;99.90
46590;DHT22;32313;48.722;9.362;2023-04-21T06:29:05;4.20;99.90
46590;DHT22;32313;48.722;9.362;2023-04-21T06:31:31;4.30;99.90
46590;DHT22;32313;48.722;9.362;2023-04-21T06:33:57;4.30;99.90
46590;DHT22;32313;48.722;9.362;2023-04-21T06:36:22;4.30;99.90
46590;DHT22;32313;48.722;9.362;2023-04-21T06:38:48;4.30;99.90
46590;DHT22;32313;48.722;9.362;2023-04-21T06:41:14;4.50;99.90
46590;DHT22;32313;48.722;9.362;2023-04-21T06:43:39;4.90;99.90
46590;DHT22;32313;48.722;9.362;2023-04-21T06:46:05;5.20;99.90
46590;DHT22;32313;48.722;9.362;2023-04-21T06:48:31;5.50;99.90
46590;DHT22;32313;48.722;9.362;2023-04-21T06:50:57;5.80;99.90
46590;DHT22;32313;48.722;9.362;2023-04-21T06:53:23;6.00;99.90
46590;DHT22;32313;48.722;9.362;2023-04-21T06:55:48;6.20;99.90
46590;DHT22;32313;48.722;9.362;2023-04-21T06:58:14;6.30;99.90
46590;DHT22;32313;48.722;9.362;2023-04-21T07:00:40;6.50;99.90
46590;DHT22;32313;48.722;9.362;2023-04-21T07:03:06;6.70;99.90
46590;DHT22;32313;48.722;9.362;2023-04-21T07:05:31;6.80;99.90
46590;DHT22;32313;48.722;9.362;2023-04-21T07:07:57;6.80;99.90
46590;DHT22;32313;48.722;9.362;2023-04-21T07:10:26;6.70;99.90
46590;DHT22;32313;48.722;9.362;2023-04-21T07:12:52;6.70;99.90
46590;DHT22;32313;48.722;9.362;2023-04-21T07:15:18;6.60;99.90
46590;DHT22;32313;48.722;9.362;2023-04-21T07:17:44;6.70;99.90
46590;DHT22;32313;48.722;9.362;2023-04-21T07:20:10;6.70;99.90
46590;DHT22;32313;48.722;9.362;2023-04-21T07:22:36;6.80;99.90
46590;DHT22;32313;48.722;9.362;2023-04-21T07:25:02;7.00;99.90
46590;DHT22;32313;48.722;9.362;2023-04-21T07:27:32;7.10;99.90
46590;DHT22;32313;48.722;9.362;2023-04-21T07:29:58;7.00;99.90
46590;DHT22;32313;48.722;9.362;2023-04-21T07:32:24;7.00;99.90
46590;DHT22;32313;48.722;9.362;2023-04-21T07:34:49;6.90;99.90
46590;DHT22;32313;48.722;9.362;2023-04-21T07:37:16;6.80;99.90
46590;DHT22;32313;48.722;9.362;2023-04-21T07:39:42;6.90;99.90
46590;DHT22;32313;48.722;9.362;2023-04-21T07:42:08;7.10;99.90
46590;DHT22;32313;48.722;9.362;2023-04-21T07:44:34;7.30;99.90
46590;DHT22;32313;48.722;9.362;2023-04-21T07:47:00;7.60;99.90
46590;DHT22;32313;48.722;9.362;2023-04-21T07:49:25;8.10;99.90
46590;DHT22;32313;48.722;9.362;2023-04-21T07:51:51;8.70;99.90
46590;DHT22;32313;48.722;9.362;2023-04-21T07:54:16;9.40;99.90
46590;DHT22;32313;48.722;9.362;2023-04-21T07:56:42;9.70;99.90
46590;DHT22;32313;48.722;9.362;2023-04-21T07:59:08;9.80;99.90
46590;DHT22;32313;48.722;9.362;2023-04-21T08:01:34;10.00;99.90
46590;DHT22;32313;48.722;9.362;2023-04-21T08:04:00;9.90;99.90
46590;DHT22;32313;48.722;9.362;2023-04-21T08:06:25;9.70;99.90
46590;DHT22;32313;48.722;9.362;2023-04-21T08:08:52;9.60;99.90
46590;DHT22;32313;48.722;9.362;2023-04-21T08:11:19;9.60;99.90
46590;DHT22;32313;48.722;9.362;2023-04-21T08:13:44;9.80;99.90
46590;DHT22;32313;48.722;9.362;2023-04-21T08:16:10;9.90;99.90
46590;DHT22;32313;48.722;9.362;2023-04-21T08:18:36;10.30;99.90
46590;DHT22;32313;48.722;9.362;2023-04-21T08:21:01;10.60;99.90
46590;DHT22;32313;48.722;9.362;2023-04-21T08:23:27;10.70;99.90
46590;DHT22;32313;48.722;9.362;2023-04-21T08:25:55;10.80;99.90
46590;DHT22;32313;48.722;9.362;2023-04-21T08:28:20;11.00;99.90
46590;DHT22;32313;48.722;9.362;2023-04-21T08:30:46;12.10;99.90
46590;DHT22;32313;48.722;9.362;2023-04-21T08:33:12;12.90;99.90
46590;DHT22;32313;48.722;9.362;2023-04-21T08:35:38;13.20;99.90
46590;DHT22;32313;48.722;9.362;2023-04-21T08:38:05;13.40;99.90
46590;DHT22;32313;48.722;9.362;2023-04-21T08:40:33;13.50;99.90
46590;DHT22;32313;48.722;9.362;2023-04-21T08:43:00;14.00;99.90
46590;DHT22;32313;48.722;9.362;2023-04-21T08:45:27;13.80;99.90
46590;DHT22;32313;48.722;9.362;2023-04-21T08:47:54;13.70;99.90
46590;DHT22;32313;48.722;9.362;2023-04-21T08:50:26;13.60;99.90
46590;DHT22;32313;48.722;9.362;2023-04-21T08:52:53;13.10;99.90
46590;DHT22;32313;48.722;9.362;2023-04-21T08:55:19;12.90;99.90
46590;DHT22;32313;48.722;9.362;2023-04-21T08:57:48;13.50;99.90
46590;DHT22;32313;48.722;9.362;2023-04-21T09:00:14;13.90;99.90
46590;DHT22;32313;48.722;9.362;2023-04-21T09:02:57;14.40;99.90
46590;DHT22;32313;48.722;9.362;2023-04-21T09:05:25;15.30;99.90
46590;DHT22;32313;48.722;9.362;2023-04-21T09:08:06;15.80;99.90
46590;DHT22;32313;48.722;9.362;2023-04-21T09:10:32;16.10;99.90
46590;DHT22;32313;48.722;9.362;2023-04-21T09:13:05;16.60;99.90
46590;DHT22;32313;48.722;9.362;2023-04-21T09:15:38;16.90;99.90
46590;DHT22;32313;48.722;9.362;2023-04-21T09:18:11;17.40;99.90
46590;DHT22;32313;48.722;9.362;2023-04-21T09:20:37;18.10;99.90
46590;DHT22;32313;48.722;9.362;2023-04-21T09:23:06;18.80;99.90
46590;DHT22;32313;48.722;9.362;2023-04-21T09:25:32;19.20;99.90
46590;DHT22;32313;48.722;9.362;2023-04-21T09:28:01;18.90;99.90
46590;DHT22;32313;48.722;9.362;2023-04-21T09:30:28;18.70;99.90
46590;DHT22;32313;48.722;9.362;2023-04-21T09:32:57;18.40;99.90
46590;DHT22;32313;48.722;9.362;2023-04-21T09:35:27;18.50;99.90
46590;DHT22;32313;48.722;9.362;2023-04-21T09:37:53;18.70;99.90
46590;DHT22;32313;48.722;9.362;2023-04-21T09:40:19;19.20;99.90
46590;DHT22;32313;48.722;9.362;2023-04-21T09:42:45;19.80;99.90
46590;DHT22;32313;48.722;9.362;2023-04-21T09:45:12;20.10;99.90
46590;DHT22;32313;48.722;9.362;2023-04-21T09:47:40;20.20;99.90
46590;DHT22;32313;48.722;9.362;2023-04-21T09:50:11;20.10;99.90
46590;DHT22;32313;48.722;9.362;2023-04-21T09:52:38;19.60;99.90
46590;DHT22;32313;48.722;9.362;2023-04-21T09:55:12;19.30;99.90
46590;DHT22;32313;48.722;9.362;2023-04-21T09:57:39;19.70;99.90
46590;DHT22;32313;48.722;9.362;2023-04-21T10:00:07;20.40;99.90
46590;DHT22;32313;48.722;9.362;2023-04-21T10:02:36;21.10;99.90
46590;DHT22;32313;48.722;9.362;2023-04-21T10:05:04;21.30;99.90
46590;DHT22;32313;48.722;9.362;2023-04-21T10:07:31;20.90;99.90
46590;DHT22;32313;48.722;9.362;2023-04-21T10:09:58;20.30;99.90
46590;DHT22;32313;48.722;9.362;2023-04-21T10:12:25;20.00;99.90
46590;DHT22;32313;48.722;9.362;2023-04-21T10:14:53;20.10;99.90
46590;DHT22;32313;48.722;9.362;2023-04-21T10:17:23;20.20;99.90
46590;DHT22;32313;48.722;9.362;2023-04-21T10:19:56;20.10;99.90
46590;DHT22;32313;48.722;9.362;2023-04-21T10:22:30;20.40;99.90
46590;DHT22;32313;48.722;9.362;2023-04-21T10:24:58;20.60;99.90
46590;DHT22;32313;48.722;9.362;2023-04-21T10:27:39;20.90;99.90
46590;DHT22;32313;48.722;9.362;2023-04-21T10:30:22;21.10;99.90
46590;DHT22;32313;48.722;9.362;2023-04-21T10:32:48;21.80;99.90
46590;DHT22;32313;48.722;9.362;2023-04-21T10:38:35;22.40;97.80
46590;DHT22;32313;48.722;9.362;2023-04-21T10:41:29;22.50;98.40
46590;DHT22;32313;48.722;9.362;2023-04-21T10:46:38;22.80;96.00
46590;DHT22;32313;48.722;9.362;2023-04-21T10:49:07;22.80;97.20
46590;DHT22;32313;48.722;9.362;2023-04-21T10:54:22;22.70;97.10
46590;DHT22;32313;48.722;9.362;2023-04-21T10:56:54;22.70;97.50
46590;DHT22;32313;48.722;9.362;2023-04-21T10:59:20;22.70;97.30
46590;DHT22;32313;48.722;9.362;2023-04-21T11:01:46;22.40;95.00
46590;DHT22;32313;48.722;9.362;2023-04-21T11:04:16;22.20;96.40
46590;DHT22;32313;48.722;9.362;2023-04-21T11:06:42;22.30;97.20
46590;DHT22;32313;48.722;9.362;2023-04-21T11:09:08;22.70;96.50
46590;DHT22;32313;48.722;9.362;2023-04-21T11:11:35;23.00;96.70
46590;DHT22;32313;48.722;9.362;2023-04-21T11:14:01;23.40;96.80
46590;DHT22;32313;48.722;9.362;2023-04-21T11:16:27;23.90;96.80
46590;DHT22;32313;48.722;9.362;2023-04-21T11:18:55;24.00;94.60
46590;DHT22;32313;48.722;9.362;2023-04-21T11:21:21;23.80;93.80
46590;DHT22;32313;48.722;9.362;2023-04-21T11:23:56;23.60;93.70
46590;DHT22;32313;48.722;9.362;2023-04-21T11:26:40;23.50;92.60
46590;DHT22;32313;48.722;9.362;2023-04-21T11:29:10;23.30;93.00
46590;DHT22;32313;48.722;9.362;2023-04-21T11:31:39;23.70;92.60
46590;DHT22;32313;48.722;9.362;2023-04-21T11:34:06;23.70;91.50
46590;DHT22;32313;48.722;9.362;2023-04-21T11:39:04;23.40;92.60
46590;DHT22;32313;48.722;9.362;2023-04-21T11:41:32;23.80;92.90
46590;DHT22;32313;48.722;9.362;2023-04-21T11:43:58;23.90;91.90
46590;DHT22;32313;48.722;9.362;2023-04-21T11:46:28;23.50;91.40
46590;DHT22;32313;48.722;9.362;2023-04-21T11:49:04;23.50;91.90
46590;DHT22;32313;48.722;9.362;2023-04-21T11:51:35;23.50;90.20
46590;DHT22;32313;48.722;9.362;2023-04-21T11:54:01;23.80;91.90
46590;DHT22;32313;48.722;9.362;2023-04-21T11:56:28;24.00;90.60
46590;DHT22;32313;48.722;9.362;2023-04-21T11:58:54;24.20;90.20
46590;DHT22;32313;48.722;9.362;2023-04-21T12:01:20;24.30;88.50
46590;DHT22;32313;48.722;9.362;2023-04-21T12:03:56;24.00;89.00
46590;DHT22;32313;48.722;9.362;2023-04-21T12:06:25;24.20;89.90
46590;DHT22;32313;48.722;9.362;2023-04-21T12:09:00;24.40;89.20
46590;DHT22;32313;48.722;9.362;2023-04-21T12:11:28;24.40;90.00
46590;DHT22;32313;48.722;9.362;2023-04-21T12:13:57;24.40;86.30
46590;DHT22;32313;48.722;9.362;2023-04-21T12:16:25;24.60;87.70
46590;DHT22;32313;48.722;9.362;2023-04-21T12:18:55;24.60;88.60
46590;DHT22;32313;48.722;9.362;2023-04-21T12:21:21;24.90;85.00
46590;DHT22;32313;48.722;9.362;2023-04-21T12:23:50;25.10;86.00
46590;DHT22;32313;48.722;9.362;2023-04-21T12:26:16;25.20;84.80
46590;DHT22;32313;48.722;9.362;2023-04-21T12:28:42;25.40;86.70
46590;DHT22;32313;48.722;9.362;2023-04-21T12:31:07;25.30;84.00
46590;DHT22;32313;48.722;9.362;2023-04-21T12:33:33;25.20;84.80
46590;DHT22;32313;48.722;9.362;2023-04-21T12:35:59;25.30;83.50
46590;DHT22;32313;48.722;9.362;2023-04-21T12:38:24;25.30;79.40
46590;DHT22;32313;48.722;9.362;2023-04-21T12:40:50;25.10;80.20
46590;DHT22;32313;48.722;9.362;2023-04-21T12:43:16;25.00;81.00
46590;DHT22;32313;48.722;9.362;2023-04-21T12:45:42;25.10;82.70
46590;DHT22;32313;48.722;9.362;2023-04-21T12:48:07;25.10;79.40
46590;DHT22;32313;48.722;9.362;2023-04-21T12:50:33;25.30;80.90
46590;DHT22;32313;48.722;9.362;2023-04-21T12:52:58;25.10;79.40
46590;DHT22;32313;48.722;9.362;2023-04-21T12:55:24;25.00;80.90
46590;DHT22;32313;48.722;9.362;2023-04-21T12:57:50;24.90;76.40
46590;DHT22;32313;48.722;9.362;2023-04-21T13:00:17;24.80;76.80
46590;DHT22;32313;48.722;9.362;2023-04-21T13:02:43;24.70;77.80
46590;DHT22;32313;48.722;9.362;2023-04-21T13:05:09;25.00;78.20
46590;DHT22;32313;48.722;9.362;2023-04-21T13:07:36;24.80;74.50
46590;DHT22;32313;48.722;9.362;2023-04-21T13:10:03;24.90;73.90
46590;DHT22;32313;48.722;9.362;2023-04-21T13:12:31;25.00;74.50
46590;DHT22;32313;48.722;9.362;2023-04-21T13:14:57;25.00;72.50
46590;DHT22;32313;48.722;9.362;2023-04-21T13:17:23;24.90;74.30
46590;DHT22;32313;48.722;9.362;2023-04-21T13:19:48;25.00;74.90
46590;DHT22;32313;48.722;9.362;2023-04-21T13:22:14;25.20;76.10
46590;DHT22;32313;48.722;9.362;2023-04-21T13:24:41;25.30;73.50
46590;DHT22;32313;48.722;9.362;2023-04-21T13:27:07;25.30;72.60
46590;DHT22;32313;48.722;9.362;2023-04-21T13:29:33;25.10;71.80
46590;DHT22;32313;48.722;9.362;2023-04-21T13:32:03;24.90;74.30
46590;DHT22;32313;48.722;9.362;2023-04-21T13:34:30;25.00;75.20
46590;DHT22;32313;48.722;9.362;2023-04-21T13:36:56;24.90;68.90
46590;DHT22;32313;48.722;9.362;2023-04-21T13:39:22;24.70;72.30
46590;DHT22;32313;48.722;9.362;2023-04-21T13:41:48;24.70;72.90
46590;DHT22;32313;48.722;9.362;2023-04-21T13:44:13;24.90;74.80
46590;DHT22;32313;48.722;9.362;2023-04-21T13:46:39;25.30;76.00
46590;DHT22;32313;48.722;9.362;2023-04-21T13:49:05;25.50;72.10
46590;DHT22;32313;48.722;9.362;2023-04-21T13:51:31;25.70;69.70
46590;DHT22;32313;48.722;9.362;2023-04-21T13:53:56;25.50;72.40
46590;DHT22;32313;48.722;9.362;2023-04-21T13:56:22;25.70;74.20
46590;DHT22;32313;48.722;9.362;2023-04-21T13:58:48;25.90;70.50
46590;DHT22;32313;48.722;9.362;2023-04-21T14:01:14;26.00;73.40
46590;DHT22;32313;48.722;9.362;2023-04-21T14:03:40;26.10;71.20
46590;DHT22;32313;48.722;9.362;2023-04-21T14:06:06;25.80;70.30
46590;DHT22;32313;48.722;9.362;2023-04-21T14:08:32;25.30;70.60
46590;DHT22;32313;48.722;9.362;2023-04-21T14:10:58;25.30;71.10
46590;DHT22;32313;48.722;9.362;2023-04-21T14:13:24;25.10;71.80
46590;DHT22;32313;48.722;9.362;2023-04-21T14:15:54;25.10;71.50
46590;DHT22;32313;48.722;9.362;2023-04-21T14:18:20;25.30;70.10
46590;DHT22;32313;48.722;9.362;2023-04-21T14:20:52;25.30;70.40
46590;DHT22;32313;48.722;9.362;2023-04-21T14:23:17;25.40;70.80
46590;DHT22;32313;48.722;9.362;2023-04-21T14:25:43;25.40;71.20
46590;DHT22;32313;48.722;9.362;2023-04-21T14:28:09;25.00;72.10
46590;DHT22;32313;48.722;9.362;2023-04-21T14:30:35;25.10;69.80
46590;DHT22;32313;48.722;9.362;2023-04-21T14:33:01;25.30;71.00
46590;DHT22;32313;48.722;9.362;2023-04-21T14:35:27;25.40;71.60
46590;DHT22;32313;48.722;9.362;2023-04-21T14:37:52;25.30;71.40
46590;DHT22;32313;48.722;9.362;2023-04-21T14:40:18;25.30;70.90
46590;DHT22;32313;48.722;9.362;2023-04-21T14:42:44;24.90;71.20
46590;DHT22;32313;48.722;9.362;2023-04-21T14:45:10;24.70;71.50
46590;DHT22;32313;48.722;9.362;2023-04-21T14:47:36;24.70;69.80
46590;DHT22;32313;48.722;9.362;2023-04-21T14:50:02;24.80;71.90
46590;DHT22;32313;48.722;9.362;2023-04-21T14:52:29;25.10;73.00
46590;DHT22;32313;48.722;9.362;2023-04-21T14:54:55;25.60;73.00
46590;DHT22;32313;48.722;9.362;2023-04-21T14:57:20;25.60;72.30
46590;DHT22;32313;48.722;9.362;2023-04-21T14:59:50;25.50;73.30
46590;DHT22;32313;48.722;9.362;2023-04-21T15:02:17;25.90;73.00
46590;DHT22;32313;48.722;9.362;2023-04-21T15:04:43;26.10;68.00
46590;DHT22;32313;48.722;9.362;2023-04-21T15:07:08;25.70;71.40
46590;DHT22;32313;48.722;9.362;2023-04-21T15:09:34;25.90;71.10
46590;DHT22;32313;48.722;9.362;2023-04-21T15:12:00;25.80;70.20
46590;DHT22;32313;48.722;9.362;2023-04-21T15:14:26;25.10;73.00
46590;DHT22;32313;48.722;9.362;2023-04-21T15:16:52;24.60;73.60
46590;DHT22;32313;48.722;9.362;2023-04-21T15:19:17;24.10;74.90
46590;DHT22;32313;48.722;9.362;2023-04-21T15:21:43;23.70;75.50
46590;DHT22;32313;48.722;9.362;2023-04-21T15:24:09;23.50;78.10
46590;DHT22;32313;48.722;9.362;2023-04-21T15:26:35;23.70;76.30
46590;DHT22;32313;48.722;9.362;2023-04-21T15:29:02;24.00;74.90
46590;DHT22;32313;48.722;9.362;2023-04-21T15:31:29;24.20;74.00
46590;DHT22;32313;48.722;9.362;2023-04-21T15:33:55;24.30;75.10
46590;DHT22;32313;48.722;9.362;2023-04-21T15:36:20;24.30;74.80
46590;DHT22;32313;48.722;9.362;2023-04-21T15:38:46;24.60;73.80
46590;DHT22;32313;48.722;9.362;2023-04-21T15:41:12;24.80;74.90
46590;DHT22;32313;48.722;9.362;2023-04-21T15:43:37;24.90;73.80
46590;DHT22;32313;48.722;9.362;2023-04-21T15:46:03;24.50;74.00
46590;DHT22;32313;48.722;9.362;2023-04-21T15:48:40;24.00;75.70